createdAt,value
2023-04-18T00:02:27.612Z,19.48
2023-04-18T00:07:30.795Z,20.40
2023-04-18T00:12:32.646Z,30.05
2023-04-18T00:17:34.547Z,22.52
2023-04-18T00:22:37.898Z,22.45
2023-04-18T00:27:39.515Z,22.63
2023-04-18T00:32:41.133Z,28.67
2023-04-18T00:37:44.067Z,22.70
2023-04-18T00:42:45.619Z,24.10
2023-04-18T00:47:47.194Z,27.10
2023-04-18T00:52:50.691Z,33.42
2023-04-18T00:57:52.262Z,31.23
2023-04-18T01:02:54.099Z,26.60
2023-04-18T01:07:57.136Z,30.55
2023-04-18T01:13:15.239Z,35.58
2023-04-18T01:18:17.666Z,34.58
2023-04-18T01:23:21.126Z,24.33
2023-04-18T01:28:24.157Z,32.50
2023-04-18T01:33:25.728Z,19.90
2023-04-18T01:38:27.463Z,29.73
2023-04-18T01:43:30.362Z,34.10
2023-04-18T01:48:31.931Z,27.75
2023-04-18T01:53:33.485Z,31.10
2023-04-18T01:58:36.399Z,24.75
2023-04-18T02:03:38.437Z,42.33
2023-04-18T02:08:40.292Z,49.10
2023-04-18T02:13:43.201Z,47.58
2023-04-18T02:18:44.852Z,44.13
2023-04-18T02:23:46.365Z,47.85
2023-04-18T02:28:49.385Z,45.20
2023-04-18T02:33:50.901Z,26.50
2023-04-18T02:38:52.429Z,49.85
2023-04-18T02:43:55.327Z,27.17
2023-04-18T02:48:56.898Z,45.72
2023-04-18T02:53:58.504Z,49.83
2023-04-18T02:59:01.434Z,30.70
2023-04-18T03:04:03.096Z,32.13
2023-04-18T03:09:04.928Z,47.88
2023-04-18T03:14:07.800Z,53.05
2023-04-18T03:19:09.356Z,59.83
2023-04-18T03:24:12.212Z,58.53
2023-04-18T03:29:15.332Z,37.50
2023-04-18T03:34:16.855Z,60.10
2023-04-18T03:39:18.490Z,62.22
2023-04-18T03:44:21.762Z,56.80
2023-04-18T03:49:23.307Z,66.30
2023-04-18T03:54:24.858Z,40.20
2023-04-18T03:59:27.843Z,67.60
2023-04-18T04:04:29.479Z,69.38
2023-04-18T04:09:31.024Z,35.95
2023-04-18T04:14:33.949Z,64.28
2023-04-18T04:19:35.490Z,34.50
2023-04-18T04:24:37.090Z,62.08
2023-04-18T04:29:40.067Z,84.82
2023-04-18T04:34:41.624Z,68.60
2023-04-18T04:39:43.189Z,111.57
2023-04-18T04:44:46.222Z,137.98
2023-04-18T04:49:47.839Z,104.32
2023-04-18T04:54:51.243Z,87.30
2023-04-18T04:59:54.120Z,100.38
2023-04-18T05:04:55.643Z,99.35
2023-04-18T05:09:57.189Z,89.47
2023-04-18T05:15:00.089Z,118.45
2023-04-18T05:20:01.651Z,64.53
2023-04-18T05:25:03.671Z,54.83
2023-04-18T05:30:07.992Z,53.53
2023-04-18T05:35:09.568Z,56.95
2023-04-18T05:40:12.717Z,99.78
2023-04-18T05:45:15.817Z,69.07
2023-04-18T05:50:17.350Z,59.70
2023-04-18T05:55:18.981Z,51.22
2023-04-18T06:00:22.243Z,114.90
2023-04-18T06:05:24.117Z,88.88
2023-04-18T06:10:25.883Z,62.53
2023-04-18T06:15:29.116Z,87.95
2023-04-18T06:20:30.738Z,71.43
2023-04-18T06:25:32.315Z,99.13
2023-04-18T06:30:35.223Z,105.22
2023-04-18T06:35:37.346Z,90.22
2023-04-18T06:40:38.899Z,82.90
2023-04-18T06:45:41.936Z,64.88
2023-04-18T06:50:43.616Z,77.10
2023-04-18T06:55:45.166Z,68.05
2023-04-18T07:00:48.075Z,48.30
2023-04-18T07:05:49.700Z,59.60
2023-04-18T07:10:51.597Z,59.40
2023-04-18T07:15:54.674Z,65.55
2023-04-18T07:20:56.186Z,51.35
2023-04-18T07:25:57.761Z,62.47
2023-04-18T07:31:01.353Z,54.28
2023-04-18T07:36:03.094Z,58.65
2023-04-18T07:41:04.769Z,60.33
2023-04-18T07:46:08.121Z,61.13
2023-04-18T07:51:11.555Z,38.90
2023-04-18T07:56:13.198Z,41.47
2023-04-18T08:01:16.210Z,50.13
2023-04-18T08:06:17.776Z,49.10
2023-04-18T08:11:19.358Z,52.55
2023-04-18T08:16:22.302Z,49.97
2023-04-18T08:21:23.891Z,41.35
2023-04-18T08:26:25.458Z,48.50
2023-04-18T08:31:28.418Z,47.70
2023-04-18T08:36:29.990Z,48.05
2023-04-18T08:41:36.863Z,48.63
2023-04-18T08:46:39.811Z,44.37
2023-04-18T08:51:44.068Z,42.15
2023-04-18T08:56:45.647Z,43.58
2023-04-18T09:01:53.127Z,40.63
2023-04-18T09:06:54.733Z,36.65
2023-04-18T09:12:06.069Z,34.97
2023-04-18T09:17:10.556Z,34.10
2023-04-18T09:22:13.178Z,43.08
2023-04-18T09:27:14.716Z,41.00
2023-04-18T09:32:23.217Z,29.73
2023-04-18T09:37:25.992Z,37.55
2023-04-18T09:42:35.997Z,28.15
2023-04-18T09:47:39.757Z,31.40
2023-04-18T09:52:43.050Z,31.45
2023-04-18T09:57:46.386Z,33.10
2023-04-18T10:02:51.860Z,26.98
2023-04-18T10:07:54.631Z,29.92
2023-04-18T10:12:58.008Z,26.27
2023-04-18T10:18:06.041Z,24.85
2023-04-18T10:23:37.785Z,26.33
2023-04-18T10:28:53.832Z,25.33
2023-04-18T10:39:20.373Z,24.33
2023-04-18T10:44:22.579Z,18.83
2023-04-18T10:49:28.409Z,20.10
2023-04-18T10:54:37.584Z,19.97
2023-04-18T10:59:42.025Z,18.92
2023-04-18T11:04:51.129Z,17.90
2023-04-18T11:09:54.050Z,17.60
2023-04-18T11:14:55.616Z,20.50
2023-04-18T11:20:02.855Z,20.38
2023-04-18T11:25:07.827Z,20.95
2023-04-18T11:30:10.038Z,20.27
2023-04-18T11:35:14.145Z,17.02
2023-04-18T11:40:15.832Z,18.55
2023-04-18T11:45:17.404Z,18.15
2023-04-18T11:50:20.374Z,21.85
2023-04-18T11:55:23.500Z,17.20
2023-04-18T12:00:32.879Z,20.63
2023-04-18T12:05:37.365Z,15.90
2023-04-18T12:10:46.426Z,17.95
2023-04-18T12:15:48.081Z,14.75
2023-04-18T12:20:52.340Z,17.05
2023-04-18T12:25:58.919Z,16.98
2023-04-18T12:31:00.825Z,16.73
2023-04-18T12:36:04.306Z,17.30
2023-04-18T12:41:05.847Z,17.95
2023-04-18T12:46:07.406Z,11.88
2023-04-18T12:51:10.262Z,17.10
2023-04-18T12:56:11.836Z,16.17
2023-04-18T13:01:14.172Z,12.85
2023-04-18T13:06:17.487Z,13.68
2023-04-18T13:11:19.029Z,11.35
2023-04-18T13:16:20.655Z,12.82
2023-04-18T13:21:23.547Z,11.82
2023-04-18T13:26:25.141Z,11.88
2023-04-18T13:31:26.684Z,15.32
2023-04-18T13:36:29.644Z,11.20
2023-04-18T13:41:31.538Z,17.83
2023-04-18T13:46:33.154Z,12.68
2023-04-18T13:51:36.103Z,16.38
2023-04-18T13:56:37.653Z,9.80
2023-04-18T14:01:39.238Z,15.35
2023-04-18T14:06:42.253Z,15.45
2023-04-18T14:11:44.453Z,15.10
2023-04-18T14:16:46.045Z,16.70
2023-04-18T14:21:48.980Z,9.52
2023-04-18T14:26:50.521Z,14.65
2023-04-18T14:31:52.078Z,12.90
2023-04-18T14:36:54.924Z,13.02
2023-04-18T14:41:56.502Z,14.00
2023-04-18T14:46:58.075Z,12.27
2023-04-18T14:52:01.034Z,11.90
2023-04-18T14:57:02.570Z,10.52
2023-04-18T15:02:04.263Z,14.30
2023-04-18T15:07:07.190Z,14.45
2023-04-18T15:12:08.733Z,14.38
2023-04-18T15:17:10.319Z,14.27
2023-04-18T15:22:13.245Z,15.70
2023-04-18T15:27:14.966Z,13.73
2023-04-18T15:32:16.616Z,14.00
2023-04-18T15:37:26.241Z,15.43
2023-04-18T15:42:27.800Z,13.82
2023-04-18T15:47:29.401Z,15.20
2023-04-18T15:52:32.303Z,10.40
2023-04-18T15:57:33.834Z,11.35
2023-04-18T16:02:35.505Z,12.93
2023-04-18T16:07:38.551Z,10.40
2023-04-18T16:12:40.293Z,13.25
2023-04-18T16:17:41.846Z,13.27
2023-04-18T16:22:44.774Z,14.45
2023-04-18T16:27:46.301Z,12.13
2023-04-18T16:32:47.901Z,10.80
2023-04-18T16:37:50.822Z,10.48
2023-04-18T16:42:52.350Z,17.83
2023-04-18T16:47:53.959Z,16.83
2023-04-18T16:52:56.860Z,13.20
2023-04-18T16:57:58.416Z,14.70
2023-04-18T17:03:00.006Z,13.52
2023-04-18T17:08:03.135Z,14.75
2023-04-18T17:13:04.696Z,13.02
2023-04-18T17:18:06.274Z,13.60
2023-04-18T17:23:09.193Z,16.08
2023-04-18T17:28:10.763Z,15.15
2023-04-18T17:33:12.277Z,13.55
2023-04-18T17:38:15.217Z,14.00
2023-04-18T17:43:16.756Z,12.57
2023-04-18T17:48:18.282Z,18.90
2023-04-18T17:53:21.300Z,16.52
2023-04-18T17:58:22.840Z,15.25
2023-04-18T18:03:24.596Z,15.95
2023-04-18T18:08:27.648Z,16.48
2023-04-18T18:13:29.241Z,12.73
2023-04-18T18:18:30.834Z,10.38
2023-04-18T18:23:33.692Z,14.07
2023-04-18T18:28:35.494Z,14.68
2023-04-18T18:33:37.049Z,17.42
2023-04-18T18:38:39.967Z,18.80
2023-04-18T18:43:41.480Z,19.70
2023-04-18T18:48:43.167Z,13.10
2023-04-18T18:53:46.221Z,18.35
2023-04-18T18:58:47.776Z,17.38
2023-04-18T19:03:49.483Z,14.02
2023-04-18T19:08:52.601Z,15.98
2023-04-18T19:13:54.175Z,18.00
2023-04-18T19:18:55.719Z,17.00
2023-04-18T19:23:58.625Z,20.00
2023-04-18T19:29:00.173Z,25.50
2023-04-18T19:34:01.850Z,22.50
2023-04-18T19:39:04.869Z,22.73
2023-04-18T19:44:06.450Z,18.27
2023-04-18T19:49:08.018Z,18.17
2023-04-18T19:54:10.906Z,25.73
2023-04-18T19:59:12.760Z,25.42
2023-04-18T20:04:14.653Z,20.45
2023-04-18T20:09:17.815Z,21.08
2023-04-18T20:14:19.369Z,22.73
2023-04-18T20:19:20.948Z,20.20
2023-04-18T20:24:23.910Z,21.90
2023-04-18T20:29:26.148Z,22.35
2023-04-18T20:34:27.833Z,20.67
2023-04-18T20:39:30.723Z,20.88
2023-04-18T20:44:32.245Z,17.98
2023-04-18T20:49:33.792Z,18.98
2023-04-18T20:54:36.864Z,16.17
2023-04-18T20:59:38.445Z,23.55
2023-04-18T21:04:40.519Z,18.13
2023-04-18T21:09:43.563Z,21.08
2023-04-18T21:14:45.115Z,21.50
2023-04-18T21:19:46.708Z,14.23
2023-04-18T21:24:49.619Z,17.77
2023-04-18T21:29:51.177Z,17.50
2023-04-18T21:34:52.729Z,22.02
2023-04-18T21:39:55.593Z,16.55
2023-04-18T21:44:57.120Z,15.48
2023-04-18T21:49:58.687Z,15.90
2023-04-18T21:55:01.970Z,23.90
2023-04-18T22:00:04.070Z,18.55
2023-04-18T22:05:06.173Z,17.15
2023-04-18T22:10:09.971Z,15.55
2023-04-18T22:15:11.793Z,26.02
2023-04-18T22:20:13.378Z,21.17
2023-04-18T22:25:16.528Z,15.63
2023-04-18T22:30:18.073Z,16.55
2023-04-18T22:35:19.727Z,28.17
2023-04-18T22:40:22.679Z,20.15
2023-04-18T22:45:24.202Z,19.42
2023-04-18T22:50:25.869Z,21.00
2023-04-18T22:55:28.734Z,24.67
2023-04-18T23:00:30.283Z,23.15
2023-04-18T23:05:31.837Z,24.70
2023-04-18T23:10:35.054Z,21.50
2023-04-18T23:15:36.607Z,26.67
2023-04-18T23:20:38.185Z,25.55
2023-04-18T23:25:41.050Z,21.30
2023-04-18T23:30:42.610Z,26.55
2023-04-18T23:35:44.238Z,23.73
2023-04-18T23:40:47.117Z,25.38
2023-04-18T23:45:48.629Z,29.98
2023-04-18T23:50:51.492Z,19.50
2023-04-18T23:55:54.456Z,30.45
